Mc Kenney, Virginia
Current Conditions -  °F | °C
As of 9:55 AM on Friday 24 Oct 2014 (Local Time) from KBKT Reporting Station
Clear Clear  
Wind Chill: 58°   Ceiling: Unl
Heat Index: 58°   Visibility: 10mi
Dew Point: 44°   Wind: 7mph
Humidity: 60%   Direction: 340°NNW
Pressure: 30.02"   Gusts: NA
Location:  37.0016°N, 77.7543°W
Report Text: KBKT 241355Z AUTO 34006KT 10SM CLR 14/07 A3002 RMK AO1 T01440067
Loading
Personal Weather Stations






























Interactive Weather Map
Tropical Storm Tracking
New forecast layout! Learn more

10-Day Weather Forecast

Advertisements
Track Severe Weather on mobile